West Rockport, ME (04865)

12:32 PM EST on January 17, 2017 (GMT -0500)
Beech Hill Road | | Change Station
Active Advisory: Small Craft Advisory

Elev 488 ft 44.17 °N, 69.10 °W | Updated 4 minutes ago

Partly Cloudy
Partly Cloudy
36.7 °F
Feels Like 37 °F
N
0.6
Wind Variable Wind from NNE
Gusts 1.9 mph

Today
High -- | Low -- °F
--% Chance of Precip.
Yesterday
High -- | Low -- °F
Precip. -- in
Pressure 30.25 in
Visibility 10.0 miles
Clouds Clear
Windchill 37 °F
Dew Point 22 °F
Humidity 54%
Rainfall 0.00 in
Snow Depth Not available.
7:07 AM 4:26 PM
Waning Gibbous, 71% visible
METAR KRKD 171656Z AUTO 03008KT 10SM CLR 03/M07 A3024 RMK AO2 SLP241 T00281067
Pressure 30.25 in
Visibility 10.0 miles
Clouds Clear
Windchill 37 °F
Dew Point 22 °F
Humidity 54%
Rainfall 0.00 in
Snow Depth Not available.
7:07 AM 4:26 PM
Waning Gibbous, 71% visible
METAR KRKD 171656Z AUTO 03008KT 10SM CLR 03/M07 A3024 RMK AO2 SLP241 T00281067

Get Your Daily Forecast Email!

Thanks for signing up!

Be on the lookout for a verification email in your inbox.

You'll start receiving the daily forecast at 8 AM.

×

10-Day Weather Forecast

Almanac

Astronomy

Jan. 17, 2017 Rise Set
Actual Time
Civil Twilight
Nautical Twilight
Astronomical Twilight
Moon
Length of Visible Light
Length of Day
Tomorrow will be .
, % of the Moon is Illuminated

Today's Extremes

State Highs State Lows

Community

WunderPhotos

Upload Photos

1,962,540 photos uploaded!

WunderBlog® & News

Nearby

Air Quality

  Air Quality AQ Index Pollutant
Not available.

Snow Depth

Station Depth Elevation

Earthquake Activity

City Distance Mag. Time & Date
Minimum magnitude displayed is 2.5.

Coastal Water Temperatures

Place Temperature

Stations

Nearby Weather Stations

Station Location Temp. Windchill Dew Point Humidity Wind Precip. Elev Updated Type
                   

Watches & Warnings

Small Craft Advisory
Issued: 3:15 AM EST Jan. 17, 2017 – National Weather Service

... Small Craft Advisory in effect from 1 am to 6 PM EST
Wednesday...

The National Weather Service in gray has issued a Small Craft
Advisory... which is in effect from 1 am to 6 PM EST Wednesday.

* Winds... east 15 to 20 kt with gusts up to 30 kt.

* Seas... 5 to 8 feet.

Precautionary/preparedness actions...

A Small Craft Advisory means that wind speeds of 25 to 33 knots
are expected to produce hazardous wave conditions to small craft.
Inexperienced mariners... especially those operating smaller
vessels should avoid navigating in these conditions.